sensor_id;sensor_type;location;lat;lon;timestamp;temperature;humidity
28336;DHT22;15592;53.656;7.276;2023-12-20T00:01:19;5.80;99.90
28336;DHT22;15592;53.656;7.276;2023-12-20T00:03:45;5.80;99.90
28336;DHT22;15592;53.656;7.276;2023-12-20T00:06:10;5.80;99.90
28336;DHT22;15592;53.656;7.276;2023-12-20T00:08:36;5.80;99.90
28336;DHT22;15592;53.656;7.276;2023-12-20T00:11:02;5.80;99.90
28336;DHT22;15592;53.656;7.276;2023-12-20T00:13:28;5.90;99.90
28336;DHT22;15592;53.656;7.276;2023-12-20T00:15:53;5.90;99.90
28336;DHT22;15592;53.656;7.276;2023-12-20T00:18:19;5.80;99.90
28336;DHT22;15592;53.656;7.276;2023-12-20T00:20:44;5.80;99.90
28336;DHT22;15592;53.656;7.276;2023-12-20T00:23:10;5.80;99.90
28336;DHT22;15592;53.656;7.276;2023-12-20T00:25:35;5.80;99.90
28336;DHT22;15592;53.656;7.276;2023-12-20T00:28:01;5.90;99.90
28336;DHT22;15592;53.656;7.276;2023-12-20T00:30:27;5.90;99.90
28336;DHT22;15592;53.656;7.276;2023-12-20T00:32:53;5.90;99.90
28336;DHT22;15592;53.656;7.276;2023-12-20T00:35:19;5.90;99.90
28336;DHT22;15592;53.656;7.276;2023-12-20T00:37:45;5.90;99.90
28336;DHT22;15592;53.656;7.276;2023-12-20T00:40:11;6.00;99.90
28336;DHT22;15592;53.656;7.276;2023-12-20T00:42:36;6.00;99.90
28336;DHT22;15592;53.656;7.276;2023-12-20T00:45:02;6.00;99.90
28336;DHT22;15592;53.656;7.276;2023-12-20T00:47:30;5.90;99.90
28336;DHT22;15592;53.656;7.276;2023-12-20T00:49:56;5.80;99.90
28336;DHT22;15592;53.656;7.276;2023-12-20T00:52:21;5.70;99.90
28336;DHT22;15592;53.656;7.276;2023-12-20T00:54:48;5.60;99.90
28336;DHT22;15592;53.656;7.276;2023-12-20T00:57:13;5.60;99.90
28336;DHT22;15592;53.656;7.276;2023-12-20T00:59:39;5.50;99.90
28336;DHT22;15592;53.656;7.276;2023-12-20T01:02:05;5.50;99.90
28336;DHT22;15592;53.656;7.276;2023-12-20T01:04:30;5.50;99.90
28336;DHT22;15592;53.656;7.276;2023-12-20T01:06:56;5.60;99.90
28336;DHT22;15592;53.656;7.276;2023-12-20T01:09:21;5.60;99.90
28336;DHT22;15592;53.656;7.276;2023-12-20T01:11:52;5.60;99.90
28336;DHT22;15592;53.656;7.276;2023-12-20T01:14:17;5.70;99.90
28336;DHT22;15592;53.656;7.276;2023-12-20T01:16:43;5.70;99.90
28336;DHT22;15592;53.656;7.276;2023-12-20T01:19:08;5.70;99.90
28336;DHT22;15592;53.656;7.276;2023-12-20T01:21:34;5.80;99.90
28336;DHT22;15592;53.656;7.276;2023-12-20T01:24:00;5.80;99.90
28336;DHT22;15592;53.656;7.276;2023-12-20T01:26:25;5.80;99.90
28336;DHT22;15592;53.656;7.276;2023-12-20T01:28:51;5.80;99.90
28336;DHT22;15592;53.656;7.276;2023-12-20T01:31:16;5.90;99.90
28336;DHT22;15592;53.656;7.276;2023-12-20T01:33:42;5.90;99.90
28336;DHT22;15592;53.656;7.276;2023-12-20T01:36:08;6.00;99.90
28336;DHT22;15592;53.656;7.276;2023-12-20T01:38:33;6.10;99.90
28336;DHT22;15592;53.656;7.276;2023-12-20T01:40:59;6.10;99.90
28336;DHT22;15592;53.656;7.276;2023-12-20T01:43:25;6.10;99.90
28336;DHT22;15592;53.656;7.276;2023-12-20T01:45:51;6.10;99.90
28336;DHT22;15592;53.656;7.276;2023-12-20T01:48:18;6.10;99.90
28336;DHT22;15592;53.656;7.276;2023-12-20T01:50:45;6.00;99.90
28336;DHT22;15592;53.656;7.276;2023-12-20T01:53:12;6.00;99.90
28336;DHT22;15592;53.656;7.276;2023-12-20T01:55:40;6.00;99.90
28336;DHT22;15592;53.656;7.276;2023-12-20T01:58:09;6.00;99.90
28336;DHT22;15592;53.656;7.276;2023-12-20T02:00:36;6.00;99.90
28336;DHT22;15592;53.656;7.276;2023-12-20T02:03:03;6.10;99.90
28336;DHT22;15592;53.656;7.276;2023-12-20T02:05:33;6.10;99.90
28336;DHT22;15592;53.656;7.276;2023-12-20T02:08:00;6.10;99.90
28336;DHT22;15592;53.656;7.276;2023-12-20T02:10:26;6.10;99.90
28336;DHT22;15592;53.656;7.276;2023-12-20T02:12:51;6.10;99.90
28336;DHT22;15592;53.656;7.276;2023-12-20T02:15:17;6.00;99.90
28336;DHT22;15592;53.656;7.276;2023-12-20T02:17:44;5.90;99.90
28336;DHT22;15592;53.656;7.276;2023-12-20T02:20:10;5.90;99.90
28336;DHT22;15592;53.656;7.276;2023-12-20T02:22:36;5.90;99.90
28336;DHT22;15592;53.656;7.276;2023-12-20T02:25:02;6.00;99.90
28336;DHT22;15592;53.656;7.276;2023-12-20T02:27:28;6.00;99.90
28336;DHT22;15592;53.656;7.276;2023-12-20T02:29:54;5.90;99.90
28336;DHT22;15592;53.656;7.276;2023-12-20T02:32:21;5.90;99.90
28336;DHT22;15592;53.656;7.276;2023-12-20T02:34:48;5.90;99.90
28336;DHT22;15592;53.656;7.276;2023-12-20T02:37:14;5.90;99.90
28336;DHT22;15592;53.656;7.276;2023-12-20T02:39:40;5.90;99.90
28336;DHT22;15592;53.656;7.276;2023-12-20T02:42:05;5.90;99.90
28336;DHT22;15592;53.656;7.276;2023-12-20T02:44:31;5.90;99.90
28336;DHT22;15592;53.656;7.276;2023-12-20T02:46:57;5.90;99.90
28336;DHT22;15592;53.656;7.276;2023-12-20T02:49:22;6.00;99.90
28336;DHT22;15592;53.656;7.276;2023-12-20T02:51:48;6.00;99.90
28336;DHT22;15592;53.656;7.276;2023-12-20T02:54:13;6.00;99.90
28336;DHT22;15592;53.656;7.276;2023-12-20T02:56:39;6.00;99.90
28336;DHT22;15592;53.656;7.276;2023-12-20T02:59:05;5.90;99.90
28336;DHT22;15592;53.656;7.276;2023-12-20T03:01:44;6.00;99.90
28336;DHT22;15592;53.656;7.276;2023-12-20T03:04:10;5.90;99.90
28336;DHT22;15592;53.656;7.276;2023-12-20T03:06:36;5.90;99.90
28336;DHT22;15592;53.656;7.276;2023-12-20T03:09:01;6.00;99.90
28336;DHT22;15592;53.656;7.276;2023-12-20T03:11:27;5.90;99.90
28336;DHT22;15592;53.656;7.276;2023-12-20T03:13:54;6.00;99.90
28336;DHT22;15592;53.656;7.276;2023-12-20T03:16:19;6.00;99.90
28336;DHT22;15592;53.656;7.276;2023-12-20T03:18:45;6.00;99.90
28336;DHT22;15592;53.656;7.276;2023-12-20T03:21:11;6.00;99.90
28336;DHT22;15592;53.656;7.276;2023-12-20T03:23:36;6.00;99.90
28336;DHT22;15592;53.656;7.276;2023-12-20T03:26:02;6.00;99.90
28336;DHT22;15592;53.656;7.276;2023-12-20T03:28:29;6.00;99.90
28336;DHT22;15592;53.656;7.276;2023-12-20T03:30:55;6.00;99.90
28336;DHT22;15592;53.656;7.276;2023-12-20T03:33:20;6.00;99.90
28336;DHT22;15592;53.656;7.276;2023-12-20T03:35:46;6.00;99.90
28336;DHT22;15592;53.656;7.276;2023-12-20T03:38:12;6.00;99.90
28336;DHT22;15592;53.656;7.276;2023-12-20T03:40:37;6.00;99.90
28336;DHT22;15592;53.656;7.276;2023-12-20T03:43:03;6.00;99.90
28336;DHT22;15592;53.656;7.276;2023-12-20T03:45:29;6.00;99.90
28336;DHT22;15592;53.656;7.276;2023-12-20T03:47:54;6.00;99.90
28336;DHT22;15592;53.656;7.276;2023-12-20T03:50:25;6.00;99.90
28336;DHT22;15592;53.656;7.276;2023-12-20T03:52:51;6.00;99.90
28336;DHT22;15592;53.656;7.276;2023-12-20T03:55:17;5.90;99.90
28336;DHT22;15592;53.656;7.276;2023-12-20T03:57:42;5.90;99.90
28336;DHT22;15592;53.656;7.276;2023-12-20T04:00:08;5.90;99.90
28336;DHT22;15592;53.656;7.276;2023-12-20T04:02:36;5.90;99.90
28336;DHT22;15592;53.656;7.276;2023-12-20T04:05:02;6.00;99.90
28336;DHT22;15592;53.656;7.276;2023-12-20T04:07:27;6.10;99.90
28336;DHT22;15592;53.656;7.276;2023-12-20T04:09:53;6.10;99.90
28336;DHT22;15592;53.656;7.276;2023-12-20T04:12:19;6.20;99.90
28336;DHT22;15592;53.656;7.276;2023-12-20T04:14:44;6.20;99.90
28336;DHT22;15592;53.656;7.276;2023-12-20T04:17:10;6.20;99.90
28336;DHT22;15592;53.656;7.276;2023-12-20T04:19:35;6.20;99.90
28336;DHT22;15592;53.656;7.276;2023-12-20T04:22:01;6.20;99.90
28336;DHT22;15592;53.656;7.276;2023-12-20T04:24:26;6.20;99.90
28336;DHT22;15592;53.656;7.276;2023-12-20T04:26:52;6.20;99.90
28336;DHT22;15592;53.656;7.276;2023-12-20T04:29:18;6.20;99.90
28336;DHT22;15592;53.656;7.276;2023-12-20T04:31:43;6.20;99.90
28336;DHT22;15592;53.656;7.276;2023-12-20T04:34:09;6.20;99.90
28336;DHT22;15592;53.656;7.276;2023-12-20T04:36:34;6.20;99.90
28336;DHT22;15592;53.656;7.276;2023-12-20T04:39:00;6.30;99.90
28336;DHT22;15592;53.656;7.276;2023-12-20T04:41:26;6.30;99.90
28336;DHT22;15592;53.656;7.276;2023-12-20T04:43:53;6.30;99.90
28336;DHT22;15592;53.656;7.276;2023-12-20T04:46:18;6.30;99.90
28336;DHT22;15592;53.656;7.276;2023-12-20T04:48:44;6.20;99.90
28336;DHT22;15592;53.656;7.276;2023-12-20T04:51:09;6.20;99.90
28336;DHT22;15592;53.656;7.276;2023-12-20T04:53:35;6.20;99.90
28336;DHT22;15592;53.656;7.276;2023-12-20T04:56:00;6.20;99.90
28336;DHT22;15592;53.656;7.276;2023-12-20T04:58:26;6.20;99.90
28336;DHT22;15592;53.656;7.276;2023-12-20T05:00:52;6.20;99.90
28336;DHT22;15592;53.656;7.276;2023-12-20T05:03:17;6.20;99.90
28336;DHT22;15592;53.656;7.276;2023-12-20T05:05:43;6.20;99.90
28336;DHT22;15592;53.656;7.276;2023-12-20T05:08:09;6.20;99.90
28336;DHT22;15592;53.656;7.276;2023-12-20T05:10:34;6.20;99.90
28336;DHT22;15592;53.656;7.276;2023-12-20T05:13:01;6.20;99.90
28336;DHT22;15592;53.656;7.276;2023-12-20T05:15:27;6.10;99.90
28336;DHT22;15592;53.656;7.276;2023-12-20T05:17:53;6.10;99.90
28336;DHT22;15592;53.656;7.276;2023-12-20T05:20:18;6.20;99.90
28336;DHT22;15592;53.656;7.276;2023-12-20T05:22:44;6.20;99.90
28336;DHT22;15592;53.656;7.276;2023-12-20T05:25:10;6.20;99.90
28336;DHT22;15592;53.656;7.276;2023-12-20T05:27:38;6.20;99.90
28336;DHT22;15592;53.656;7.276;2023-12-20T05:30:04;6.30;99.90
28336;DHT22;15592;53.656;7.276;2023-12-20T05:32:30;6.30;99.90
28336;DHT22;15592;53.656;7.276;2023-12-20T05:34:56;6.30;99.90
28336;DHT22;15592;53.656;7.276;2023-12-20T05:37:22;6.30;99.90
28336;DHT22;15592;53.656;7.276;2023-12-20T05:39:47;6.30;99.90
28336;DHT22;15592;53.656;7.276;2023-12-20T05:42:13;6.30;99.90
28336;DHT22;15592;53.656;7.276;2023-12-20T05:44:38;6.40;99.90
28336;DHT22;15592;53.656;7.276;2023-12-20T05:47:04;6.40;99.90
28336;DHT22;15592;53.656;7.276;2023-12-20T05:49:30;6.40;99.90
28336;DHT22;15592;53.656;7.276;2023-12-20T05:51:55;6.50;99.90
28336;DHT22;15592;53.656;7.276;2023-12-20T05:54:21;6.40;99.90
28336;DHT22;15592;53.656;7.276;2023-12-20T05:56:47;6.40;99.90
28336;DHT22;15592;53.656;7.276;2023-12-20T05:59:13;6.40;99.90
28336;DHT22;15592;53.656;7.276;2023-12-20T06:01:39;6.30;99.90
28336;DHT22;15592;53.656;7.276;2023-12-20T06:04:04;6.20;99.90
28336;DHT22;15592;53.656;7.276;2023-12-20T06:06:33;6.20;99.90
28336;DHT22;15592;53.656;7.276;2023-12-20T06:08:59;6.10;99.90
28336;DHT22;15592;53.656;7.276;2023-12-20T06:11:25;6.20;99.90
28336;DHT22;15592;53.656;7.276;2023-12-20T06:13:51;6.30;99.90
28336;DHT22;15592;53.656;7.276;2023-12-20T06:16:18;6.30;99.90
28336;DHT22;15592;53.656;7.276;2023-12-20T06:18:44;6.40;99.90
28336;DHT22;15592;53.656;7.276;2023-12-20T06:21:09;6.40;99.90
28336;DHT22;15592;53.656;7.276;2023-12-20T06:23:38;6.40;99.90
28336;DHT22;15592;53.656;7.276;2023-12-20T06:26:04;6.40;99.90
28336;DHT22;15592;53.656;7.276;2023-12-20T06:28:29;6.40;99.90
28336;DHT22;15592;53.656;7.276;2023-12-20T06:30:55;6.40;99.90
28336;DHT22;15592;53.656;7.276;2023-12-20T06:33:22;6.40;99.90
28336;DHT22;15592;53.656;7.276;2023-12-20T06:35:48;6.40;99.90
28336;DHT22;15592;53.656;7.276;2023-12-20T06:38:14;6.40;99.90
28336;DHT22;15592;53.656;7.276;2023-12-20T06:40:40;6.40;99.90
28336;DHT22;15592;53.656;7.276;2023-12-20T06:43:17;6.40;99.90
28336;DHT22;15592;53.656;7.276;2023-12-20T06:45:43;6.50;99.90
28336;DHT22;15592;53.656;7.276;2023-12-20T06:48:09;6.50;99.90
28336;DHT22;15592;53.656;7.276;2023-12-20T06:50:36;6.40;99.90
28336;DHT22;15592;53.656;7.276;2023-12-20T06:53:36;6.40;99.90
28336;DHT22;15592;53.656;7.276;2023-12-20T06:56:02;6.50;99.90
28336;DHT22;15592;53.656;7.276;2023-12-20T06:59:10;6.50;99.90
28336;DHT22;15592;53.656;7.276;2023-12-20T07:01:25;6.50;99.90
28336;DHT22;15592;53.656;7.276;2023-12-20T07:03:51;6.60;99.90
28336;DHT22;15592;53.656;7.276;2023-12-20T07:06:16;6.60;99.90
28336;DHT22;15592;53.656;7.276;2023-12-20T07:08:42;6.60;99.90
28336;DHT22;15592;53.656;7.276;2023-12-20T07:11:08;6.60;99.90
28336;DHT22;15592;53.656;7.276;2023-12-20T07:13:37;6.60;99.90
28336;DHT22;15592;53.656;7.276;2023-12-20T07:16:03;6.60;99.90
28336;DHT22;15592;53.656;7.276;2023-12-20T07:18:28;6.60;99.90
28336;DHT22;15592;53.656;7.276;2023-12-20T07:20:54;6.70;99.90
28336;DHT22;15592;53.656;7.276;2023-12-20T07:23:20;6.70;99.90
28336;DHT22;15592;53.656;7.276;2023-12-20T07:25:49;6.70;99.90
28336;DHT22;15592;53.656;7.276;2023-12-20T07:28:15;6.70;99.90
28336;DHT22;15592;53.656;7.276;2023-12-20T07:30:43;6.70;99.90
28336;DHT22;15592;53.656;7.276;2023-12-20T07:33:08;6.70;99.90
28336;DHT22;15592;53.656;7.276;2023-12-20T07:35:35;6.80;99.90
28336;DHT22;15592;53.656;7.276;2023-12-20T07:38:00;6.70;99.90
28336;DHT22;15592;53.656;7.276;2023-12-20T07:40:27;6.70;99.90
28336;DHT22;15592;53.656;7.276;2023-12-20T07:42:56;6.80;99.90
28336;DHT22;15592;53.656;7.276;2023-12-20T07:45:21;6.80;99.90
28336;DHT22;15592;53.656;7.276;2023-12-20T07:47:47;6.80;99.90
28336;DHT22;15592;53.656;7.276;2023-12-20T07:50:12;6.80;99.90
28336;DHT22;15592;53.656;7.276;2023-12-20T07:52:38;6.90;99.90
28336;DHT22;15592;53.656;7.276;2023-12-20T07:55:04;6.80;99.90
28336;DHT22;15592;53.656;7.276;2023-12-20T07:57:30;6.60;99.90
28336;DHT22;15592;53.656;7.276;2023-12-20T07:59:56;6.40;99.90
28336;DHT22;15592;53.656;7.276;2023-12-20T08:02:21;6.10;99.90
28336;DHT22;15592;53.656;7.276;2023-12-20T08:04:47;5.90;99.90
28336;DHT22;15592;53.656;7.276;2023-12-20T08:07:13;5.80;99.90
28336;DHT22;15592;53.656;7.276;2023-12-20T08:09:38;5.70;99.90
28336;DHT22;15592;53.656;7.276;2023-12-20T08:12:04;5.70;99.90
28336;DHT22;15592;53.656;7.276;2023-12-20T08:14:29;5.70;99.90
28336;DHT22;15592;53.656;7.276;2023-12-20T08:16:55;5.70;99.90
28336;DHT22;15592;53.656;7.276;2023-12-20T08:19:21;5.70;99.90
28336;DHT22;15592;53.656;7.276;2023-12-20T08:21:46;5.60;99.90
28336;DHT22;15592;53.656;7.276;2023-12-20T08:24:12;5.50;99.90
28336;DHT22;15592;53.656;7.276;2023-12-20T08:26:38;5.50;99.90
28336;DHT22;15592;53.656;7.276;2023-12-20T08:29:15;5.50;99.90
28336;DHT22;15592;53.656;7.276;2023-12-20T08:31:40;5.50;99.90
28336;DHT22;15592;53.656;7.276;2023-12-20T08:34:09;5.50;99.90
28336;DHT22;15592;53.656;7.276;2023-12-20T08:36:37;5.50;99.90
28336;DHT22;15592;53.656;7.276;2023-12-20T08:39:08;5.50;99.90
28336;DHT22;15592;53.656;7.276;2023-12-20T08:41:35;5.60;99.90
28336;DHT22;15592;53.656;7.276;2023-12-20T08:44:01;5.60;99.90
28336;DHT22;15592;53.656;7.276;2023-12-20T08:46:26;5.60;99.90
28336;DHT22;15592;53.656;7.276;2023-12-20T08:48:52;5.50;99.90
28336;DHT22;15592;53.656;7.276;2023-12-20T08:51:20;5.50;99.90
28336;DHT22;15592;53.656;7.276;2023-12-20T08:53:48;5.50;99.90
28336;DHT22;15592;53.656;7.276;2023-12-20T08:56:14;5.60;99.90
28336;DHT22;15592;53.656;7.276;2023-12-20T08:58:40;5.60;99.90
28336;DHT22;15592;53.656;7.276;2023-12-20T09:01:05;5.60;99.90
28336;DHT22;15592;53.656;7.276;2023-12-20T09:03:31;5.70;99.90
28336;DHT22;15592;53.656;7.276;2023-12-20T09:05:57;5.70;99.90
28336;DHT22;15592;53.656;7.276;2023-12-20T09:08:23;5.70;99.90
28336;DHT22;15592;53.656;7.276;2023-12-20T09:10:48;5.70;99.90
28336;DHT22;15592;53.656;7.276;2023-12-20T09:13:14;5.70;99.90
28336;DHT22;15592;53.656;7.276;2023-12-20T09:15:39;5.70;99.90
28336;DHT22;15592;53.656;7.276;2023-12-20T09:18:05;5.70;99.90
28336;DHT22;15592;53.656;7.276;2023-12-20T09:20:31;5.70;99.90
28336;DHT22;15592;53.656;7.276;2023-12-20T09:22:57;5.80;99.90
28336;DHT22;15592;53.656;7.276;2023-12-20T09:25:23;5.80;99.90
28336;DHT22;15592;53.656;7.276;2023-12-20T09:27:48;5.80;99.90
28336;DHT22;15592;53.656;7.276;2023-12-20T09:30:14;5.80;99.90
28336;DHT22;15592;53.656;7.276;2023-12-20T09:32:40;5.70;99.90
28336;DHT22;15592;53.656;7.276;2023-12-20T09:35:05;5.70;99.90
28336;DHT22;15592;53.656;7.276;2023-12-20T09:37:32;5.70;99.90
28336;DHT22;15592;53.656;7.276;2023-12-20T09:39:57;5.80;99.90
28336;DHT22;15592;53.656;7.276;2023-12-20T09:45:15;5.80;99.90
28336;DHT22;15592;53.656;7.276;2023-12-20T09:47:43;5.80;99.90
28336;DHT22;15592;53.656;7.276;2023-12-20T09:50:11;5.90;99.90
28336;DHT22;15592;53.656;7.276;2023-12-20T09:52:39;5.90;99.90
28336;DHT22;15592;53.656;7.276;2023-12-20T09:55:07;6.00;99.90
28336;DHT22;15592;53.656;7.276;2023-12-20T10:00:59;6.00;99.90
28336;DHT22;15592;53.656;7.276;2023-12-20T10:03:26;6.00;99.90
28336;DHT22;15592;53.656;7.276;2023-12-20T10:05:56;6.00;99.90
28336;DHT22;15592;53.656;7.276;2023-12-20T10:08:33;5.90;99.90
28336;DHT22;15592;53.656;7.276;2023-12-20T10:21:22;5.90;99.90
28336;DHT22;15592;53.656;7.276;2023-12-20T10:23:58;6.00;99.90
28336;DHT22;15592;53.656;7.276;2023-12-20T10:26:26;6.10;99.90
28336;DHT22;15592;53.656;7.276;2023-12-20T10:29:00;6.20;99.90
28336;DHT22;15592;53.656;7.276;2023-12-20T10:31:30;6.20;99.90
28336;DHT22;15592;53.656;7.276;2023-12-20T10:33:56;6.20;99.90
28336;DHT22;15592;53.656;7.276;2023-12-20T10:36:24;6.20;99.90
28336;DHT22;15592;53.656;7.276;2023-12-20T10:38:52;6.20;99.90
28336;DHT22;15592;53.656;7.276;2023-12-20T10:41:24;6.20;99.90
28336;DHT22;15592;53.656;7.276;2023-12-20T10:43:51;6.30;99.90
28336;DHT22;15592;53.656;7.276;2023-12-20T10:46:19;6.20;99.90
28336;DHT22;15592;53.656;7.276;2023-12-20T10:48:45;6.20;99.90
28336;DHT22;15592;53.656;7.276;2023-12-20T10:53:42;6.00;99.90
28336;DHT22;15592;53.656;7.276;2023-12-20T10:56:08;5.90;99.90
28336;DHT22;15592;53.656;7.276;2023-12-20T10:58:38;5.90;99.90
28336;DHT22;15592;53.656;7.276;2023-12-20T11:01:07;5.90;99.90
28336;DHT22;15592;53.656;7.276;2023-12-20T11:03:36;5.80;99.90
28336;DHT22;15592;53.656;7.276;2023-12-20T11:08:54;5.80;99.90
28336;DHT22;15592;53.656;7.276;2023-12-20T11:14:20;5.90;99.90
28336;DHT22;15592;53.656;7.276;2023-12-20T11:16:47;6.00;99.90
28336;DHT22;15592;53.656;7.276;2023-12-20T11:19:13;6.10;99.90
28336;DHT22;15592;53.656;7.276;2023-12-20T11:21:40;6.10;99.90
28336;DHT22;15592;53.656;7.276;2023-12-20T11:24:06;6.10;99.90
28336;DHT22;15592;53.656;7.276;2023-12-20T11:26:31;6.10;99.90
28336;DHT22;15592;53.656;7.276;2023-12-20T11:29:32;6.00;99.90
28336;DHT22;15592;53.656;7.276;2023-12-20T11:32:00;6.00;99.90
28336;DHT22;15592;53.656;7.276;2023-12-20T11:34:33;6.10;99.90
28336;DHT22;15592;53.656;7.276;2023-12-20T11:37:02;6.20;99.90
28336;DHT22;15592;53.656;7.276;2023-12-20T11:39:28;6.20;99.90
28336;DHT22;15592;53.656;7.276;2023-12-20T11:41:56;6.40;99.90
28336;DHT22;15592;53.656;7.276;2023-12-20T11:44:23;6.50;99.90
28336;DHT22;15592;53.656;7.276;2023-12-20T11:46:50;6.60;99.90
28336;DHT22;15592;53.656;7.276;2023-12-20T11:49:16;6.60;99.90
28336;DHT22;15592;53.656;7.276;2023-12-20T11:51:42;6.60;99.90
28336;DHT22;15592;53.656;7.276;2023-12-20T11:54:07;6.70;99.90
28336;DHT22;15592;53.656;7.276;2023-12-20T11:56:35;6.80;99.90
28336;DHT22;15592;53.656;7.276;2023-12-20T11:59:01;7.00;99.90
28336;DHT22;15592;53.656;7.276;2023-12-20T12:01:27;7.00;99.90
28336;DHT22;15592;53.656;7.276;2023-12-20T12:04:07;7.00;99.90
28336;DHT22;15592;53.656;7.276;2023-12-20T12:06:34;6.90;99.90
28336;DHT22;15592;53.656;7.276;2023-12-20T12:08:59;6.80;99.90
28336;DHT22;15592;53.656;7.276;2023-12-20T12:11:25;6.70;99.90
28336;DHT22;15592;53.656;7.276;2023-12-20T12:13:51;6.60;99.90
28336;DHT22;15592;53.656;7.276;2023-12-20T12:16:20;6.60;99.90
28336;DHT22;15592;53.656;7.276;2023-12-20T12:18:46;6.50;99.90
28336;DHT22;15592;53.656;7.276;2023-12-20T12:21:21;6.40;99.90
28336;DHT22;15592;53.656;7.276;2023-12-20T12:23:46;6.40;99.90
28336;DHT22;15592;53.656;7.276;2023-12-20T12:26:12;6.40;99.90
28336;DHT22;15592;53.656;7.276;2023-12-20T12:28:40;6.40;99.90
28336;DHT22;15592;53.656;7.276;2023-12-20T12:31:06;6.40;99.90
28336;DHT22;15592;53.656;7.276;2023-12-20T12:33:32;6.40;99.90
28336;DHT22;15592;53.656;7.276;2023-12-20T12:35:58;6.40;99.90
28336;DHT22;15592;53.656;7.276;2023-12-20T12:38:25;6.40;99.90
28336;DHT22;15592;53.656;7.276;2023-12-20T12:40:50;6.40;99.90
28336;DHT22;15592;53.656;7.276;2023-12-20T12:43:18;6.30;99.90
28336;DHT22;15592;53.656;7.276;2023-12-20T12:45:44;6.20;99.90
28336;DHT22;15592;53.656;7.276;2023-12-20T12:48:10;6.20;99.90
28336;DHT22;15592;53.656;7.276;2023-12-20T12:50:35;6.20;99.90
28336;DHT22;15592;53.656;7.276;2023-12-20T12:53:01;6.20;99.90
28336;DHT22;15592;53.656;7.276;2023-12-20T12:55:28;6.30;99.90
28336;DHT22;15592;53.656;7.276;2023-12-20T12:57:54;6.30;99.90
28336;DHT22;15592;53.656;7.276;2023-12-20T13:00:20;6.30;99.90
28336;DHT22;15592;53.656;7.276;2023-12-20T13:02:45;6.30;99.90
28336;DHT22;15592;53.656;7.276;2023-12-20T13:05:11;6.30;99.90
28336;DHT22;15592;53.656;7.276;2023-12-20T13:07:36;6.30;99.90
28336;DHT22;15592;53.656;7.276;2023-12-20T13:10:03;6.20;99.90
28336;DHT22;15592;53.656;7.276;2023-12-20T13:12:29;6.20;99.90
28336;DHT22;15592;53.656;7.276;2023-12-20T13:14:55;6.10;99.90
28336;DHT22;15592;53.656;7.276;2023-12-20T13:17:20;6.10;99.90
28336;DHT22;15592;53.656;7.276;2023-12-20T13:19:46;6.00;99.90
28336;DHT22;15592;53.656;7.276;2023-12-20T13:22:12;6.00;99.90
28336;DHT22;15592;53.656;7.276;2023-12-20T13:24:37;6.00;99.90
28336;DHT22;15592;53.656;7.276;2023-12-20T13:27:03;6.10;99.90
28336;DHT22;15592;53.656;7.276;2023-12-20T13:29:28;6.10;99.90
28336;DHT22;15592;53.656;7.276;2023-12-20T13:31:54;6.10;99.90
28336;DHT22;15592;53.656;7.276;2023-12-20T13:34:20;6.10;99.90
28336;DHT22;15592;53.656;7.276;2023-12-20T13:36:46;6.10;99.90
28336;DHT22;15592;53.656;7.276;2023-12-20T13:39:13;6.10;99.90
28336;DHT22;15592;53.656;7.276;2023-12-20T13:41:39;6.10;99.90
28336;DHT22;15592;53.656;7.276;2023-12-20T13:44:05;6.20;99.90
28336;DHT22;15592;53.656;7.276;2023-12-20T13:46:31;6.20;99.90
28336;DHT22;15592;53.656;7.276;2023-12-20T13:48:56;6.30;99.90
28336;DHT22;15592;53.656;7.276;2023-12-20T13:51:22;6.20;99.90
28336;DHT22;15592;53.656;7.276;2023-12-20T13:53:48;6.20;99.90
28336;DHT22;15592;53.656;7.276;2023-12-20T13:56:14;6.20;99.90
28336;DHT22;15592;53.656;7.276;2023-12-20T13:58:40;6.20;99.90
28336;DHT22;15592;53.656;7.276;2023-12-20T14:01:08;6.20;99.90
28336;DHT22;15592;53.656;7.276;2023-12-20T14:03:34;6.20;99.90
28336;DHT22;15592;53.656;7.276;2023-12-20T14:06:00;6.20;99.90
28336;DHT22;15592;53.656;7.276;2023-12-20T14:08:27;6.20;99.90
28336;DHT22;15592;53.656;7.276;2023-12-20T14:10:53;6.30;99.90
28336;DHT22;15592;53.656;7.276;2023-12-20T14:13:18;6.30;99.90
28336;DHT22;15592;53.656;7.276;2023-12-20T14:15:44;6.30;99.90
28336;DHT22;15592;53.656;7.276;2023-12-20T14:18:10;6.30;99.90
28336;DHT22;15592;53.656;7.276;2023-12-20T14:20:36;6.30;99.90
28336;DHT22;15592;53.656;7.276;2023-12-20T14:23:02;6.30;99.90
28336;DHT22;15592;53.656;7.276;2023-12-20T14:25:28;6.20;99.90
28336;DHT22;15592;53.656;7.276;2023-12-20T14:27:54;6.10;99.90
28336;DHT22;15592;53.656;7.276;2023-12-20T14:30:19;6.10;99.90
28336;DHT22;15592;53.656;7.276;2023-12-20T14:32:45;6.10;99.90
28336;DHT22;15592;53.656;7.276;2023-12-20T14:35:13;6.00;99.90
28336;DHT22;15592;53.656;7.276;2023-12-20T14:37:38;6.10;99.90
28336;DHT22;15592;53.656;7.276;2023-12-20T14:40:06;6.00;99.90
28336;DHT22;15592;53.656;7.276;2023-12-20T14:42:35;6.00;99.90
28336;DHT22;15592;53.656;7.276;2023-12-20T14:45:01;6.00;99.90
28336;DHT22;15592;53.656;7.276;2023-12-20T14:47:27;6.00;99.90
28336;DHT22;15592;53.656;7.276;2023-12-20T14:49:52;6.00;99.90
28336;DHT22;15592;53.656;7.276;2023-12-20T14:52:18;6.00;99.90
28336;DHT22;15592;53.656;7.276;2023-12-20T14:54:48;6.10;99.90
28336;DHT22;15592;53.656;7.276;2023-12-20T14:57:14;6.10;99.90
28336;DHT22;15592;53.656;7.276;2023-12-20T14:59:39;6.10;99.90
28336;DHT22;15592;53.656;7.276;2023-12-20T15:02:05;6.10;99.90
28336;DHT22;15592;53.656;7.276;2023-12-20T15:04:31;6.10;99.90
28336;DHT22;15592;53.656;7.276;2023-12-20T15:06:57;6.10;99.90
28336;DHT22;15592;53.656;7.276;2023-12-20T15:09:23;6.10;99.90
28336;DHT22;15592;53.656;7.276;2023-12-20T15:11:50;6.10;99.90
28336;DHT22;15592;53.656;7.276;2023-12-20T15:14:15;6.10;99.90
28336;DHT22;15592;53.656;7.276;2023-12-20T15:16:45;6.00;99.90
28336;DHT22;15592;53.656;7.276;2023-12-20T15:19:12;6.00;99.90
28336;DHT22;15592;53.656;7.276;2023-12-20T15:21:37;6.00;99.90
28336;DHT22;15592;53.656;7.276;2023-12-20T15:24:10;6.00;99.90
28336;DHT22;15592;53.656;7.276;2023-12-20T15:26:41;6.00;99.90
28336;DHT22;15592;53.656;7.276;2023-12-20T15:29:07;6.00;99.90
28336;DHT22;15592;53.656;7.276;2023-12-20T15:31:34;5.90;99.90
28336;DHT22;15592;53.656;7.276;2023-12-20T15:34:01;5.90;99.90
28336;DHT22;15592;53.656;7.276;2023-12-20T15:36:26;5.90;99.90
28336;DHT22;15592;53.656;7.276;2023-12-20T15:38:52;5.90;99.90
28336;DHT22;15592;53.656;7.276;2023-12-20T15:41:21;5.80;99.90
28336;DHT22;15592;53.656;7.276;2023-12-20T15:43:47;5.80;99.90
28336;DHT22;15592;53.656;7.276;2023-12-20T15:46:13;5.80;99.90
28336;DHT22;15592;53.656;7.276;2023-12-20T15:48:39;5.80;99.90
28336;DHT22;15592;53.656;7.276;2023-12-20T15:51:10;5.80;99.90
28336;DHT22;15592;53.656;7.276;2023-12-20T15:53:36;5.80;99.90
28336;DHT22;15592;53.656;7.276;2023-12-20T15:56:03;5.80;99.90
28336;DHT22;15592;53.656;7.276;2023-12-20T15:58:29;5.90;99.90
28336;DHT22;15592;53.656;7.276;2023-12-20T16:00:56;5.90;99.90
28336;DHT22;15592;53.656;7.276;2023-12-20T16:03:21;5.90;99.90
28336;DHT22;15592;53.656;7.276;2023-12-20T16:05:47;6.00;99.90